Time;durP1;ratioP1;P1;durP2;ratioP2;P2;SDS_P1;SDS_P2;PMS_P1;PMS_P2;Temp;Humidity;BMP_temperature;BMP_pressure;BME280_temperature;BME280_humidity;BME280_pressure;Samples;Min_cycle;Max_cycle;Signal;HPM_P1;HPM_P2
2022/01/15 00:01:34;;;;;;;2.50;2.40;;;;;;;7.59;83.78;99426.53;5049429;28;20212;-70
2022/01/15 00:04:01;;;;;;;3.20;2.90;;;;;;;7.63;83.66;99433.22;5046263;28;20665;-70
2022/01/15 00:06:28;;;;;;;4.53;2.63;;;;;;;7.65;83.81;99436.63;5047415;28;20592;-70
2022/01/15 00:08:55;;;;;;;3.97;2.57;;;;;;;7.63;83.82;99434.09;5061291;28;20227;-71
2022/01/15 00:11:23;;;;;;;3.17;2.97;;;;;;;7.53;84.03;99424.91;5068674;28;20754;-72
2022/01/15 00:13:55;;;;;;;2.53;2.33;;;;;;;7.65;83.82;99441.72;5069202;28;20725;-71
2022/01/15 00:16:31;;;;;;;3.10;2.90;;;;;;;7.61;84.02;99452.84;5059946;28;20203;-70
2022/01/15 00:19:07;;;;;;;2.20;2.10;;;;;;;7.63;83.92;99446.00;5064876;28;20216;-70
2022/01/15 00:21:34;;;;;;;2.97;2.67;;;;;;;7.64;84.03;99466.38;5065371;28;20195;-70
2022/01/15 00:24:01;;;;;;;3.57;2.80;;;;;;;7.67;84.00;99470.59;5072731;28;20204;-71
2022/01/15 00:26:30;;;;;;;2.83;2.53;;;;;;;7.65;83.89;99472.34;5071710;28;20196;-71
2022/01/15 00:28:57;;;;;;;3.37;3.03;;;;;;;7.64;84.21;99494.44;5072699;28;20204;-70
2022/01/15 00:31:24;;;;;;;4.43;2.80;;;;;;;7.66;84.41;99499.50;5072112;28;20196;-71
2022/01/15 00:33:51;;;;;;;2.63;2.53;;;;;;;7.62;84.52;99500.47;5067689;28;20673;-70
2022/01/15 00:36:18;;;;;;;3.93;3.53;;;;;;;7.62;84.32;99513.22;5063968;28;20203;-72
2022/01/15 00:38:46;;;;;;;4.10;3.20;;;;;;;7.62;84.21;99501.31;5065485;28;20265;-70
2022/01/15 00:41:13;;;;;;;2.93;2.73;;;;;;;7.66;84.57;99520.78;5057152;28;20577;-70
2022/01/15 00:43:41;;;;;;;3.53;2.70;;;;;;;7.59;84.78;99518.38;5053616;28;20266;-71
2022/01/15 00:46:08;;;;;;;3.10;2.90;;;;;;;7.60;84.93;99520.03;5054948;28;20200;-70
2022/01/15 00:48:35;;;;;;;3.17;2.97;;;;;;;7.55;85.14;99526.94;5055409;28;20204;-70
2022/01/15 00:51:02;;;;;;;2.93;2.83;;;;;;;7.39;85.63;99509.31;5054914;28;20251;-71
2022/01/15 00:53:28;;;;;;;3.17;2.87;;;;;;;7.46;86.21;99521.97;5062274;28;20571;-70
2022/01/15 00:55:55;;;;;;;2.73;2.50;;;;;;;7.42;85.92;99510.13;5065996;28;20199;-70
2022/01/15 00:58:22;;;;;;;2.93;2.57;;;;;;;7.26;87.22;99500.19;5062499;28;20216;-70
2022/01/15 01:00:50;;;;;;;2.93;2.73;;;;;;;7.27;86.95;99517.13;5064003;28;20212;-70
2022/01/15 01:03:17;;;;;;;3.13;2.83;;;;;;;7.24;87.26;99516.34;5063464;28;20212;-70
2022/01/15 01:05:44;;;;;;;2.50;2.40;;;;;;;7.25;87.11;99518.88;5071849;28;20718;-70
2022/01/15 01:08:11;;;;;;;3.03;2.83;;;;;;;7.21;87.85;99521.47;5071327;28;20235;-71
2022/01/15 01:10:53;;;;;;;3.30;3.10;;;;;;;7.19;88.33;99513.88;5071676;28;20192;-70
2022/01/15 01:20:00;;;;;;;2.20;2.10;;;;;;;7.13;88.79;99523.31;5069572;28;20696;-70
2022/01/15 01:24:38;;;;;;;3.00;2.90;;;;;;;6.91;90.45;99525.31;5056517;28;20594;-69
2022/01/15 01:27:10;;;;;;;4.20;3.23;;;;;;;6.85;90.38;99517.75;5056779;28;20607;-70
2022/01/15 01:29:49;;;;;;;3.47;2.80;;;;;;;6.91;90.61;99538.06;5053986;28;20228;-70
2022/01/15 01:32:36;;;;;;;3.17;2.97;;;;;;;6.95;90.16;99534.59;5059215;28;20203;-70
2022/01/15 01:35:09;;;;;;;2.70;2.50;;;;;;;6.94;90.80;99525.28;5064132;28;20242;-70
2022/01/15 01:37:40;;;;;;;2.70;2.50;;;;;;;6.95;90.24;99534.59;5062351;28;20275;-70
2022/01/15 01:40:18;;;;;;;3.53;3.33;;;;;;;7.00;90.41;99532.84;5064598;28;20743;-71
2022/01/15 01:42:55;;;;;;;3.60;2.60;;;;;;;6.91;90.69;99527.88;5066325;28;20200;-70
2022/01/15 01:45:23;;;;;;;2.83;2.53;;;;;;;6.90;90.36;99528.72;5070866;28;20215;-70
2022/01/15 01:47:51;;;;;;;3.73;3.50;;;;;;;6.89;90.89;99524.50;5071222;28;20722;-70
2022/01/15 01:50:21;;;;;;;3.10;3.00;;;;;;;6.90;91.33;99541.47;5071101;28;20196;-70
2022/01/15 01:52:51;;;;;;;3.17;2.97;;;;;;;6.90;91.31;99546.56;5070662;28;20204;-70
2022/01/15 01:55:18;;;;;;;3.30;3.10;;;;;;;6.93;90.78;99545.69;5069640;28;20249;-70
2022/01/15 01:57:47;;;;;;;3.37;3.17;;;;;;;6.96;90.75;99541.38;5058275;28;20211;-70
2022/01/15 02:00:15;;;;;;;3.13;2.93;;;;;;;6.96;91.02;99541.38;5060892;28;20651;-70
2022/01/15 02:02:42;;;;;;;3.43;3.20;;;;;;;6.92;91.19;99521.91;5065957;28;20204;-70
2022/01/15 02:05:12;;;;;;;3.33;2.97;;;;;;;7.03;91.14;99529.41;5070086;28;20588;-70
2022/01/15 02:07:39;;;;;;;3.13;2.93;;;;;;;7.06;90.54;99535.31;5070759;28;20211;-70
2022/01/15 02:10:08;;;;;;;3.47;3.23;;;;;;;7.13;90.79;99524.16;5056235;28;20295;-72
2022/01/15 02:12:35;;;;;;;3.27;3.07;;;;;;;7.20;90.43;99515.56;5053680;28;20247;-70
2022/01/15 02:15:06;;;;;;;3.23;3.03;;;;;;;7.23;90.05;99512.97;5060379;28;20211;-69
2022/01/15 02:17:33;;;;;;;3.10;2.90;;;;;;;7.26;89.90;99523.13;5059946;28;20209;-70
2022/01/15 02:20:24;;;;;;;4.47;3.17;;;;;;;7.20;90.19;99505.38;5060129;28;20235;-70
2022/01/15 02:25:42;;;;;;;4.17;3.77;;;;;;;7.17;90.81;99525.78;5052098;28;20294;-70
2022/01/15 02:28:09;;;;;;;4.30;3.90;;;;;;;7.20;90.76;99527.47;5069287;28;20296;-69
2022/01/15 02:30:36;;;;;;;3.13;2.93;;;;;;;7.23;90.35;99525.72;5070168;28;20195;-70
2022/01/15 02:33:05;;;;;;;3.67;3.47;;;;;;;7.21;90.64;99529.97;5069932;28;20204;-70
2022/01/15 02:35:33;;;;;;;4.20;3.97;;;;;;;7.22;90.51;99524.03;5053518;28;20708;-70
2022/01/15 02:38:03;;;;;;;3.97;3.57;;;;;;;7.30;90.59;99532.38;5068117;28;20200;-70
2022/01/15 02:40:32;;;;;;;3.53;3.23;;;;;;;7.25;90.71;99534.19;5070320;28;20297;-70
2022/01/15 02:43:03;;;;;;;7.53;3.53;;;;;;;7.27;90.40;99537.53;5064751;28;20204;-70
2022/01/15 02:45:32;;;;;;;3.23;3.03;;;;;;;7.23;91.25;99530.81;5069756;28;20227;-70
2022/01/15 02:48:02;;;;;;;3.77;3.57;;;;;;;7.14;91.14;99536.03;5070409;28;20290;-70
2022/01/15 02:50:29;;;;;;;3.27;3.10;;;;;;;7.16;91.36;99539.41;5067866;28;20403;-70
2022/01/15 02:53:01;;;;;;;3.83;3.63;;;;;;;7.04;91.51;99528.56;5070083;28;20199;-70
2022/01/15 02:55:28;;;;;;;3.80;3.50;;;;;;;7.02;91.76;99523.47;5066566;28;20369;-69
2022/01/15 02:57:55;;;;;;;4.50;3.27;;;;;;;7.16;91.93;99557.25;5056070;28;20211;-70
2022/01/15 03:00:23;;;;;;;4.17;3.87;;;;;;;7.05;92.53;99555.69;5065372;28;20223;-70
2022/01/15 03:02:50;;;;;;;3.77;3.47;;;;;;;7.02;92.70;99551.50;5064662;28;20196;-70
2022/01/15 03:05:17;;;;;;;4.10;3.43;;;;;;;7.03;92.87;99563.38;5055884;28;20201;-70
2022/01/15 03:07:44;;;;;;;3.90;3.70;;;;;;;6.98;93.00;99575.34;5056565;28;20227;-70
2022/01/15 03:10:12;;;;;;;3.27;3.07;;;;;;;6.96;93.15;99566.88;5069499;28;20188;-70
2022/01/15 03:12:39;;;;;;;4.57;4.17;;;;;;;7.06;92.84;99573.53;5069741;28;20218;-70
2022/01/15 03:15:08;;;;;;;4.20;3.90;;;;;;;7.01;93.09;99559.19;5069453;28;20203;-70
2022/01/15 03:17:36;;;;;;;4.10;3.70;;;;;;;7.10;92.79;99564.16;5069401;28;20283;-71
2022/01/15 03:20:08;;;;;;;4.27;3.97;;;;;;;7.10;92.54;99567.53;5069237;28;20223;-70
2022/01/15 03:22:35;;;;;;;4.13;3.83;;;;;;;7.08;92.56;99574.34;5053740;28;20219;-71
2022/01/15 03:25:01;;;;;;;4.47;3.30;;;;;;;7.14;92.31;99578.53;5067728;28;20200;-70
2022/01/15 03:27:30;;;;;;;3.90;3.67;;;;;;;7.14;92.49;99587.00;5069189;28;20203;-70
2022/01/15 03:29:56;;;;;;;4.23;3.83;;;;;;;7.01;93.01;99570.19;5069305;28;20196;-70
2022/01/15 03:32:23;;;;;;;4.43;4.20;;;;;;;7.13;92.64;99603.19;5068560;28;20196;-70
2022/01/15 03:34:50;;;;;;;4.17;3.87;;;;;;;7.14;92.78;99606.59;5058627;28;20200;-69
2022/01/15 03:37:17;;;;;;;4.63;3.73;;;;;;;6.98;92.67;99590.63;5062940;28;20203;-70
2022/01/15 03:39:45;;;;;;;3.83;3.53;;;;;;;7.11;92.52;99601.53;5060104;28;20196;-70
2022/01/15 03:42:12;;;;;;;3.90;3.60;;;;;;;7.06;93.07;99599.03;5055914;28;20585;-70
2022/01/15 03:44:43;;;;;;;4.93;4.03;;;;;;;7.09;92.94;99588.78;5055910;28;20672;-70
2022/01/15 03:47:10;;;;;;;3.87;3.67;;;;;;;6.99;92.89;99576.19;5066890;28;20193;-70
2022/01/15 03:49:37;;;;;;;3.90;3.60;;;;;;;7.03;93.12;99604.16;5067724;28;20196;-70
2022/01/15 03:52:05;;;;;;;4.03;3.73;;;;;;;7.11;93.37;99612.53;5068215;28;20215;-70
2022/01/15 03:54:32;;;;;;;4.37;4.07;;;;;;;7.12;93.87;99633.78;5054576;28;20211;-70
2022/01/15 03:56:59;;;;;;;4.97;4.67;;;;;;;7.13;93.92;99626.13;5063139;28;20204;-69
2022/01/15 03:59:25;;;;;;;4.60;4.20;;;;;;;7.13;93.46;99635.47;5063635;28;20208;-70
2022/01/15 04:01:54;;;;;;;3.97;3.67;;;;;;;7.03;93.29;99619.47;5073311;28;20220;-70
2022/01/15 04:04:21;;;;;;;4.50;4.20;;;;;;;7.12;93.71;99649.94;5072934;28;20197;-70
2022/01/15 04:06:48;;;;;;;5.23;4.50;;;;;;;7.14;93.31;99648.19;5073406;28;20200;-70
2022/01/15 04:09:17;;;;;;;5.10;4.60;;;;;;;7.11;93.72;99647.41;5071634;28;20224;-70
2022/01/15 04:11:44;;;;;;;4.37;4.10;;;;;;;7.14;93.86;99643.09;5055769;28;20208;-70
2022/01/15 04:14:12;;;;;;;5.37;5.00;;;;;;;7.10;93.44;99650.81;5063401;28;20188;-70
2022/01/15 04:16:39;;;;;;;4.67;4.37;;;;;;;7.19;92.96;99664.28;5061266;28;20673;-70
2022/01/15 04:19:07;;;;;;;3.70;3.50;;;;;;;7.17;92.79;99663.44;5065460;28;20192;-70
2022/01/15 04:21:35;;;;;;;5.77;4.30;;;;;;;7.19;92.41;99671.09;5066521;28;20212;-70
2022/01/15 04:24:03;;;;;;;4.13;3.90;;;;;;;7.25;92.50;99676.97;5072498;28;20753;-70
2022/01/15 04:26:30;;;;;;;4.40;4.00;;;;;;;7.25;91.79;99687.16;5072020;28;20196;-70
2022/01/15 04:29:02;;;;;;;4.50;4.20;;;;;;;7.25;92.10;99687.16;5058898;28;20708;-70
2022/01/15 04:31:35;;;;;;;4.33;4.03;;;;;;;7.16;92.04;99671.97;5072525;28;20287;-70
2022/01/15 04:34:02;;;;;;;4.80;4.40;;;;;;;7.22;92.53;99691.44;5072851;28;20228;-70
2022/01/15 04:36:30;;;;;;;4.33;3.93;;;;;;;7.27;91.88;99690.53;5072550;28;20202;-70
2022/01/15 04:38:57;;;;;;;4.73;4.40;;;;;;;7.28;91.85;99704.97;5072295;28;20206;-70
2022/01/15 04:41:23;;;;;;;4.73;4.20;;;;;;;7.33;91.80;99708.28;5072166;28;20216;-69
2022/01/15 04:43:50;;;;;;;4.90;4.60;;;;;;;7.28;91.46;99697.31;5072602;28;20668;-70
2022/01/15 04:46:17;;;;;;;5.60;5.10;;;;;;;7.35;91.58;99709.16;5071317;28;20667;-70
2022/01/15 04:48:44;;;;;;;5.10;4.70;;;;;;;7.26;90.86;99704.16;5070922;28;21054;-70
2022/01/15 04:51:11;;;;;;;4.93;4.63;;;;;;;7.36;90.96;99713.38;5069718;28;20208;-73
2022/01/15 04:53:39;;;;;;;5.07;4.60;;;;;;;7.30;91.67;99718.53;5060443;28;20668;-70
2022/01/15 04:56:06;;;;;;;5.60;5.20;;;;;;;7.29;91.87;99724.53;5063852;28;20200;-70
2022/01/15 04:58:33;;;;;;;5.17;4.77;;;;;;;7.26;91.52;99734.75;5065469;28;20204;-70
2022/01/15 05:00:59;;;;;;;5.33;4.67;;;;;;;7.31;91.71;99748.28;5068423;28;20298;-70
2022/01/15 05:03:26;;;;;;;4.90;4.60;;;;;;;7.31;91.85;99743.19;5053835;28;20282;-71
2022/01/15 05:05:53;;;;;;;4.97;4.63;;;;;;;7.33;91.79;99756.75;5052701;28;20197;-71
2022/01/15 05:08:20;;;;;;;8.70;4.17;;;;;;;7.23;91.38;99760.28;5054907;28;20294;-72
2022/01/15 05:10:48;;;;;;;4.97;4.53;;;;;;;7.25;91.29;99770.47;5054897;28;20200;-72
2022/01/15 05:13:16;;;;;;;5.20;4.50;;;;;;;7.25;92.44;99761.09;5057407;28;20249;-71
2022/01/15 05:15:43;;;;;;;6.73;6.23;;;;;;;7.25;92.85;99767.91;5069955;28;20890;-70
2022/01/15 05:18:11;;;;;;;8.77;7.73;;;;;;;7.14;93.02;99775.66;5071514;28;20238;-73
2022/01/15 05:20:42;;;;;;;5.07;4.70;;;;;;;7.13;92.55;99774.00;5071725;28;20215;-70
2022/01/15 05:23:09;;;;;;;5.97;5.47;;;;;;;7.16;91.97;99766.31;5071201;28;20250;-71
2022/01/15 05:25:36;;;;;;;5.40;5.00;;;;;;;7.07;91.46;99753.66;5071881;28;20204;-71
2022/01/15 05:28:06;;;;;;;5.47;5.07;;;;;;;7.14;91.74;99768.00;5068403;28;20196;-71
2022/01/15 05:30:33;;;;;;;5.50;5.00;;;;;;;7.11;93.26;99762.94;5056830;28;20192;-71
2022/01/15 05:33:01;;;;;;;5.73;5.33;;;;;;;7.04;93.11;99763.91;5064303;28;20196;-72
2022/01/15 05:35:28;;;;;;;6.83;6.23;;;;;;;7.00;93.35;99771.56;5065598;28;20568;-71
2022/01/15 05:37:55;;;;;;;6.47;5.87;;;;;;;6.97;93.49;99780.09;5065878;28;20219;-72
2022/01/15 05:40:21;;;;;;;7.10;6.60;;;;;;;6.88;93.50;99788.66;5060613;28;20231;-72
2022/01/15 05:42:48;;;;;;;6.60;5.83;;;;;;;6.86;93.79;99789.53;5071065;28;20200;-71
2022/01/15 05:45:17;;;;;;;6.27;5.77;;;;;;;6.82;93.89;99793.81;5070942;28;20726;-72
2022/01/15 05:47:44;;;;;;;6.87;6.17;;;;;;;6.88;93.65;99804.84;5060880;28;20197;-71
2022/01/15 05:50:12;;;;;;;7.37;6.70;;;;;;;6.97;93.00;99813.25;5068031;28;20200;-71
2022/01/15 05:52:38;;;;;;;8.33;7.50;;;;;;;7.00;92.50;99820.84;5057464;28;20210;-71
2022/01/15 05:55:07;;;;;;;8.67;7.20;;;;;;;7.03;92.60;99828.47;5066353;28;20202;-71
2022/01/15 05:57:33;;;;;;;6.47;5.93;;;;;;;7.05;92.29;99836.94;5061582;28;20214;-70
2022/01/15 06:00:00;;;;;;;5.70;5.30;;;;;;;6.98;92.41;99844.69;5061141;28;20576;-69
2022/01/15 06:02:28;;;;;;;6.07;5.53;;;;;;;7.02;92.32;99847.16;5055615;28;20208;-70
2022/01/15 06:04:55;;;;;;;11.37;7.97;;;;;;;7.07;92.28;99848.00;5052137;28;20197;-71
2022/01/15 06:07:22;;;;;;;13.13;10.60;;;;;;;7.08;92.05;99862.41;5060875;28;20299;-71
2022/01/15 06:09:49;;;;;;;9.70;8.70;;;;;;;7.00;92.05;99871.84;5054992;28;20701;-70
2022/01/15 06:12:16;;;;;;;9.57;8.57;;;;;;;7.05;91.78;99876.88;5060896;28;20195;-70
2022/01/15 06:14:42;;;;;;;9.43;8.30;;;;;;;7.03;92.25;99882.00;5059166;28;20227;-70
2022/01/15 06:17:09;;;;;;;10.83;6.77;;;;;;;7.02;92.16;99877.75;5060781;28;20200;-69
2022/01/15 06:19:38;;;;;;;8.40;7.50;;;;;;;7.04;91.53;99880.31;5062459;28;20208;-74
2022/01/15 06:22:05;;;;;;;8.20;7.40;;;;;;;7.07;90.31;99876.03;5059245;28;20216;-71
2022/01/15 06:24:32;;;;;;;13.53;8.73;;;;;;;7.12;90.69;99874.28;5053952;28;20197;-72
2022/01/15 06:26:58;;;;;;;28.30;13.87;;;;;;;7.11;91.02;99881.94;5070181;28;21469;-72
2022/01/15 06:29:25;;;;;;;7.63;6.90;;;;;;;7.06;91.00;99889.63;5069853;28;20208;-70
2022/01/15 06:31:54;;;;;;;6.80;6.20;;;;;;;7.06;91.16;99892.16;5070380;28;20206;-70
2022/01/15 06:34:21;;;;;;;5.93;5.33;;;;;;;7.08;91.16;99902.34;5070201;28;20200;-70
2022/01/15 06:36:49;;;;;;;6.67;6.07;;;;;;;7.10;90.83;99915.94;5069826;28;20199;-71
2022/01/15 06:39:16;;;;;;;7.67;6.37;;;;;;;7.12;90.64;99915.06;5069973;28;20215;-70
2022/01/15 06:41:43;;;;;;;6.70;6.03;;;;;;;7.15;90.50;99920.13;5070328;28;20587;-71
2022/01/15 06:44:09;;;;;;;13.57;8.60;;;;;;;7.16;89.42;99915.88;5067360;28;20200;-70
2022/01/15 06:46:36;;;;;;;7.17;6.57;;;;;;;7.22;89.07;99926.88;5064809;28;20246;-70
2022/01/15 06:49:03;;;;;;;7.07;6.57;;;;;;;7.23;89.14;99931.13;5053771;28;20204;-71
2022/01/15 06:51:30;;;;;;;7.27;5.93;;;;;;;7.26;89.11;99936.22;5053240;28;20253;-74
2022/01/15 06:53:58;;;;;;;7.13;6.43;;;;;;;7.30;88.85;99935.28;5064573;28;20199;-71
2022/01/15 06:56:25;;;;;;;6.90;6.17;;;;;;;7.35;89.24;99943.78;5062895;28;20200;-70
2022/01/15 06:58:51;;;;;;;7.40;6.70;;;;;;;7.37;90.30;99947.16;5064661;28;20685;-70
2022/01/15 07:01:18;;;;;;;6.13;5.63;;;;;;;7.30;89.68;99940.41;5054564;28;20208;-71
2022/01/15 07:03:45;;;;;;;6.17;5.67;;;;;;;7.38;89.90;99953.09;5051851;28;20583;-71
2022/01/15 07:06:12;;;;;;;6.30;5.70;;;;;;;7.42;90.00;99954.78;5052613;28;20665;-70
2022/01/15 07:08:39;;;;;;;6.30;5.83;;;;;;;7.35;89.40;99948.88;5055105;28;20228;-70
2022/01/15 07:11:07;;;;;;;6.40;5.80;;;;;;;7.34;90.28;99957.38;5067325;28;20195;-70
2022/01/15 07:13:34;;;;;;;6.47;5.97;;;;;;;7.34;90.78;99967.56;5060738;28;20580;-69
2022/01/15 07:16:01;;;;;;;7.27;6.23;;;;;;;7.30;91.50;99970.19;5060994;28;20216;-70
2022/01/15 07:18:28;;;;;;;5.37;4.97;;;;;;;7.28;92.13;99967.63;5062108;28;20299;-72
2022/01/15 07:20:55;;;;;;;6.73;6.00;;;;;;;7.24;92.40;99978.69;5060754;28;20204;-70
2022/01/15 07:23:22;;;;;;;6.30;5.70;;;;;;;7.18;92.99;99971.09;5059317;28;20215;-70
2022/01/15 07:25:48;;;;;;;7.33;6.50;;;;;;;7.30;93.72;99978.66;5058091;28;20203;-70
2022/01/15 07:28:18;;;;;;;7.27;6.77;;;;;;;7.30;93.88;99991.41;5056828;28;20211;-70
2022/01/15 07:30:45;;;;;;;7.33;6.80;;;;;;;7.25;94.34;99982.97;5062861;28;20634;-70
2022/01/15 07:33:12;;;;;;;7.87;6.97;;;;;;;7.23;94.76;100007.63;5061259;28;20204;-70
2022/01/15 07:35:39;;;;;;;6.97;6.37;;;;;;;7.18;94.14;100016.16;5054288;28;20200;-70
2022/01/15 07:38:06;;;;;;;7.70;6.70;;;;;;;7.15;94.43;100009.38;5056068;28;20290;-70
2022/01/15 07:40:33;;;;;;;7.77;6.97;;;;;;;7.13;93.55;100023.84;5063909;28;20210;-58
2022/01/15 07:42:59;;;;;;;7.60;6.87;;;;;;;7.17;94.07;100014.47;5060829;28;20282;-58
2022/01/15 07:45:28;;;;;;;7.83;6.80;;;;;;;7.18;93.94;100006.78;5062867;28;20598;-58
2022/01/15 07:47:54;;;;;;;7.57;6.87;;;;;;;7.21;94.50;100016.13;5063399;28;20206;-58
2022/01/15 07:50:24;;;;;;;10.07;6.67;;;;;;;7.23;94.43;100012.72;5067672;28;20200;-58
2022/01/15 07:52:52;;;;;;;6.47;5.93;;;;;;;7.27;93.68;100019.47;5060739;28;20200;-58
2022/01/15 07:55:19;;;;;;;8.50;6.33;;;;;;;7.33;93.35;100024.53;5057822;28;20247;-58
2022/01/15 07:57:46;;;;;;;8.23;7.43;;;;;;;7.40;92.83;100033.84;5061236;28;20257;-57
2022/01/15 08:00:14;;;;;;;7.80;6.57;;;;;;;7.39;93.27;100039.81;5067793;28;20223;-57
2022/01/15 08:02:43;;;;;;;8.23;7.00;;;;;;;7.43;91.98;100047.44;5063472;28;20222;-57
2022/01/15 08:05:12;;;;;;;7.47;6.70;;;;;;;7.51;92.26;100050.78;5055650;28;20995;-57
2022/01/15 08:07:40;;;;;;;31.00;14.00;;;;;;;7.56;92.26;100064.34;5061112;28;20226;-58
2022/01/15 08:10:08;;;;;;;6.97;6.43;;;;;;;7.63;91.51;100071.09;5057458;28;20204;-57
2022/01/15 08:12:35;;;;;;;50.53;18.43;;;;;;;7.69;91.11;100066.78;5059904;28;20197;-58
2022/01/15 08:15:02;;;;;;;186.13;52.47;;;;;;;7.76;90.94;100080.34;5057274;28;20680;-58
2022/01/15 08:17:30;;;;;;;172.93;49.00;;;;;;;7.79;90.52;100082.88;5065617;28;20691;-57
2022/01/15 08:19:58;;;;;;;199.97;57.37;;;;;;;7.82;90.83;100078.59;5063704;28;20249;-57
2022/01/15 08:22:25;;;;;;;135.13;38.63;;;;;;;7.84;91.75;100086.25;5054794;28;20215;-57
2022/01/15 08:24:52;;;;;;;99.93;30.40;;;;;;;7.83;91.72;100079.44;5060343;28;20197;-57
2022/01/15 08:27:18;;;;;;;23.80;12.63;;;;;;;7.79;91.73;100072.66;5062067;28;20204;-58
2022/01/15 08:29:45;;;;;;;9.30;7.77;;;;;;;7.78;91.71;100078.66;5059894;28;20259;-58
2022/01/15 08:32:12;;;;;;;11.50;8.27;;;;;;;7.77;91.57;100074.38;5058889;28;20290;-57
2022/01/15 08:34:39;;;;;;;9.37;8.13;;;;;;;7.74;91.68;100090.59;5060873;28;20211;-57
2022/01/15 08:37:08;;;;;;;10.20;7.07;;;;;;;7.75;91.59;100082.06;5065726;28;20204;-57
2022/01/15 08:39:36;;;;;;;10.17;7.93;;;;;;;7.72;91.77;100081.25;5058992;28;20203;-57
2022/01/15 08:42:05;;;;;;;9.20;7.57;;;;;;;7.70;92.99;100072.75;5065935;28;20705;-57
2022/01/15 08:44:32;;;;;;;8.63;7.83;;;;;;;7.79;92.12;100093.94;5064493;28;20196;-57
2022/01/15 08:47:01;;;;;;;8.77;7.73;;;;;;;7.55;92.25;100043.09;5063697;28;20590;-57
2022/01/15 08:49:28;;;;;;;9.00;7.50;;;;;;;7.46;92.03;100024.47;5063765;28;20211;-57
2022/01/15 08:51:55;;;;;;;9.90;8.93;;;;;;;7.98;92.46;100109.13;5065567;28;20627;-57
2022/01/15 08:54:23;;;;;;;15.73;8.77;;;;;;;7.92;92.34;100099.78;5066730;28;20208;-57
2022/01/15 08:56:50;;;;;;;19.73;10.87;;;;;;;8.03;91.99;100103.09;5061086;28;20211;-57
2022/01/15 08:59:17;;;;;;;14.67;11.03;;;;;;;8.03;92.50;100102.25;5065024;28;20664;-57
2022/01/15 09:01:43;;;;;;;11.70;10.27;;;;;;;8.07;92.33;100092.00;5061367;28;20220;-58
2022/01/15 09:04:10;;;;;;;13.43;9.03;;;;;;;8.10;91.97;100093.69;5067290;28;20213;-57
2022/01/15 09:06:40;;;;;;;12.37;9.63;;;;;;;8.04;92.08;100086.94;5065259;28;20200;-57
2022/01/15 09:09:07;;;;;;;10.03;9.07;;;;;;;8.12;92.09;100103.00;5067371;28;20232;-57
2022/01/15 09:11:35;;;;;;;12.67;9.70;;;;;;;8.13;92.52;100103.88;5062870;28;20207;-57
2022/01/15 09:14:02;;;;;;;14.77;10.17;;;;;;;8.16;93.28;100103.84;5068909;28;20211;-56
2022/01/15 09:16:28;;;;;;;11.17;8.27;;;;;;;8.18;93.31;100100.41;5063077;28;20660;-72
2022/01/15 09:18:56;;;;;;;16.70;12.73;;;;;;;8.26;93.65;100103.75;5066126;28;20450;-69
2022/01/15 09:21:23;;;;;;;13.07;10.13;;;;;;;8.36;93.01;100107.94;5069884;28;20200;-70
2022/01/15 09:23:50;;;;;;;12.53;9.93;;;;;;;8.38;92.40;100101.09;5063979;28;20193;-70
2022/01/15 09:26:22;;;;;;;9.53;8.53;;;;;;;8.47;92.93;100104.41;5068074;28;20204;-70
2022/01/15 09:31:35;;;;;;;11.37;8.30;;;;;;;8.54;92.54;100096.66;5052998;28;20276;-69
2022/01/15 09:34:02;;;;;;;10.37;7.80;;;;;;;8.56;92.05;100089.00;5052501;28;20204;-69
2022/01/15 09:36:29;;;;;;;8.30;7.47;;;;;;;8.59;92.27;100092.38;5059715;28;20203;-69
2022/01/15 09:38:56;;;;;;;6.53;6.03;;;;;;;8.56;90.12;100081.31;5067316;28;20215;-68
2022/01/15 09:41:24;;;;;;;7.90;6.87;;;;;;;8.69;88.37;100096.47;5072100;28;20204;-69
2022/01/15 09:43:52;;;;;;;6.20;5.80;;;;;;;8.73;88.71;100093.03;5072251;28;20583;-69
2022/01/15 09:46:20;;;;;;;7.23;6.57;;;;;;;8.73;89.44;100089.63;5067932;28;20204;-69
2022/01/15 09:48:48;;;;;;;8.70;7.87;;;;;;;8.79;90.82;100081.88;5072170;28;20203;-69
2022/01/15 09:51:15;;;;;;;7.97;7.27;;;;;;;8.87;91.18;100085.22;5072221;28;20196;-69
2022/01/15 09:53:42;;;;;;;7.30;6.60;;;;;;;8.91;90.96;100086.88;5071484;28;20196;-69
2022/01/15 09:56:09;;;;;;;8.33;7.53;;;;;;;9.01;90.35;100085.88;5071770;28;20649;-69
2022/01/15 09:58:36;;;;;;;6.90;6.40;;;;;;;9.06;88.26;100085.81;5072162;28;20203;-69
2022/01/15 10:01:05;;;;;;;7.57;6.97;;;;;;;9.14;88.36;100084.88;5071871;28;20203;-69
2022/01/15 10:03:32;;;;;;;8.90;8.03;;;;;;;9.22;89.05;100083.03;5071601;28;20208;-69
2022/01/15 10:06:04;;;;;;;8.00;6.90;;;;;;;9.29;87.13;100084.66;5067609;28;20207;-68
2022/01/15 10:08:31;;;;;;;7.97;7.17;;;;;;;9.33;87.44;100075.22;5071569;28;20232;-69
2022/01/15 10:11:01;;;;;;;7.87;7.03;;;;;;;9.46;86.82;100076.72;5069181;28;20200;-68
2022/01/15 10:13:29;;;;;;;7.47;6.80;;;;;;;9.50;85.74;100073.22;5058765;28;20649;-69
2022/01/15 10:16:17;;;;;;;6.70;6.20;;;;;;;9.52;85.88;100075.78;5051533;28;20262;-68
2022/01/15 10:18:47;;;;;;;7.60;6.53;;;;;;;9.44;83.55;100058.81;5051652;28;20204;-69
2022/01/15 10:21:16;;;;;;;6.77;6.27;;;;;;;9.43;85.30;100072.47;5051442;28;20200;-69
2022/01/15 10:23:47;;;;;;;7.97;7.20;;;;;;;9.44;85.23;100066.50;5051565;28;20709;-69
2022/01/15 10:26:16;;;;;;;8.30;7.50;;;;;;;9.54;84.79;100063.78;5051436;28;20262;-69
2022/01/15 10:28:54;;;;;;;7.77;7.07;;;;;;;9.57;84.75;100056.06;5051861;28;20206;-69
2022/01/15 10:31:24;;;;;;;8.57;7.67;;;;;;;9.60;84.51;100056.88;5051266;28;20262;-69
2022/01/15 10:33:52;;;;;;;7.50;6.47;;;;;;;9.57;83.22;100058.63;5057183;28;20195;-69
2022/01/15 10:36:20;;;;;;;6.57;6.00;;;;;;;9.54;83.23;100058.69;5059503;28;20744;-69
2022/01/15 10:38:47;;;;;;;6.57;6.07;;;;;;;9.45;83.49;100050.28;5069010;28;20204;-69
2022/01/15 10:41:33;;;;;;;7.77;7.17;;;;;;;9.58;84.66;100045.81;5071096;28;20207;-69
2022/01/15 10:44:00;;;;;;;6.50;6.10;;;;;;;9.73;82.43;100050.69;5071340;28;20667;-69
2022/01/15 10:46:36;;;;;;;7.13;6.20;;;;;;;9.81;82.08;100043.75;5070911;28;20576;-69
2022/01/15 10:49:25;;;;;;;5.97;5.57;;;;;;;9.89;81.27;100030.78;5071155;28;20204;-69
2022/01/15 10:52:14;;;;;;;6.47;5.87;;;;;;;9.96;80.61;100022.13;5071104;28;20586;-70
2022/01/15 10:54:53;;;;;;;6.97;6.47;;;;;;;10.16;79.74;100029.50;5066395;28;20219;-69
2022/01/15 10:57:23;;;;;;;6.37;5.77;;;;;;;10.07;80.28;100030.47;5071164;28;20612;-69
2022/01/15 11:00:04;;;;;;;6.43;5.93;;;;;;;10.08;81.45;100029.59;5070964;28;20204;-69
2022/01/15 11:02:33;;;;;;;7.57;6.30;;;;;;;10.12;81.34;100028.66;5070704;28;20223;-69
2022/01/15 11:05:00;;;;;;;6.67;6.17;;;;;;;10.12;78.85;100023.53;5069991;28;20200;-69
2022/01/15 11:07:27;;;;;;;6.00;5.60;;;;;;;10.08;78.42;100027.03;5063768;28;20204;-69
2022/01/15 11:09:54;;;;;;;6.77;6.17;;;;;;;10.04;78.67;100025.41;5050700;28;20193;-69
2022/01/15 11:12:27;;;;;;;6.70;6.20;;;;;;;10.05;79.20;100032.19;5056369;28;20203;-69
2022/01/15 11:14:54;;;;;;;5.67;5.33;;;;;;;10.02;78.21;100030.53;5051095;28;20211;-69
2022/01/15 11:17:21;;;;;;;6.10;5.60;;;;;;;9.99;78.62;100029.75;5048988;28;20207;-70
2022/01/15 11:19:52;;;;;;;6.97;6.30;;;;;;;9.98;78.57;100030.66;5049053;28;20266;-69
2022/01/15 11:22:22;;;;;;;5.80;5.47;;;;;;;10.00;79.47;100028.88;5051481;28;20220;-69
2022/01/15 11:24:50;;;;;;;6.33;5.73;;;;;;;9.93;77.04;100010.22;5054748;28;20234;-70
2022/01/15 11:27:18;;;;;;;6.00;5.53;;;;;;;10.11;76.31;100031.28;5050610;28;20680;-70
2022/01/15 11:29:47;;;;;;;6.57;6.17;;;;;;;10.15;77.37;100027.78;5050590;28;20208;-70
2022/01/15 11:32:17;;;;;;;5.73;5.40;;;;;;;10.20;77.74;100020.88;5058245;28;20200;-69
2022/01/15 11:34:59;;;;;;;5.50;5.03;;;;;;;10.25;76.32;100024.19;5062152;28;20283;-70
2022/01/15 11:37:26;;;;;;;4.90;4.57;;;;;;;10.24;74.44;100023.34;5070402;28;20283;-70
2022/01/15 11:39:56;;;;;;;7.63;5.10;;;;;;;10.36;74.71;100023.13;5070380;28;20286;-70
2022/01/15 11:42:28;;;;;;;4.77;4.47;;;;;;;10.29;72.64;100024.09;5070242;28;20262;-71
2022/01/15 11:44:55;;;;;;;5.00;4.60;;;;;;;10.42;72.21;100017.88;5056064;28;20672;-70
2022/01/15 11:47:25;;;;;;;7.47;4.83;;;;;;;10.44;71.52;100026.38;5050239;28;20596;-70
2022/01/15 11:49:57;;;;;;;4.73;4.33;;;;;;;10.41;71.96;100021.31;5050223;28;20205;-70
2022/01/15 11:52:34;;;;;;;7.33;4.83;;;;;;;10.55;71.28;100023.59;5055182;28;20715;-70
2022/01/15 11:55:16;;;;;;;5.83;5.33;;;;;;;10.51;72.91;100012.56;5070729;28;20291;-69
2022/01/15 11:57:50;;;;;;;4.67;4.37;;;;;;;10.46;72.16;100016.94;5070214;28;20700;-70